createdAt,value
2022-08-31T00:02:59.349Z,-11416.38
2022-08-31T00:06:07.784Z,-11419.34
2022-08-31T00:09:15.420Z,-11415.41
2022-08-31T00:12:21.908Z,-11409.34
2022-08-31T00:15:31.204Z,-11419.06
2022-08-31T00:18:37.567Z,-11419.06
2022-08-31T00:21:44.916Z,-11417.50
2022-08-31T00:24:52.995Z,-11417.78
2022-08-31T00:27:59.465Z,-11417.22
2022-08-31T00:31:05.929Z,-11404.41
2022-08-31T00:34:12.639Z,-11425.69
2022-08-31T00:37:19.106Z,-11418.38
2022-08-31T00:40:27.483Z,-11426.81
2022-08-31T00:43:39.931Z,-11425.69
2022-08-31T00:46:46.671Z,-11418.66
2022-08-31T00:49:54.137Z,-11415.12
2022-08-31T00:53:02.487Z,-11412.44
2022-08-31T00:56:10.786Z,-11418.38
2022-08-31T00:59:19.564Z,-11411.03
2022-08-31T01:02:26.282Z,-11402.72
2022-08-31T01:05:33.758Z,-11408.50
2022-08-31T01:08:40.175Z,-11404.97
2022-08-31T01:11:47.903Z,-11397.66
2022-08-31T01:14:54.255Z,-11395.12
2022-08-31T01:18:04.020Z,-11403.72
2022-08-31T01:21:24.227Z,-11396.94
2022-08-31T01:24:34.226Z,-11406.53
2022-08-31T01:27:41.194Z,-11404.56
2022-08-31T01:31:00.867Z,-11408.78
2022-08-31T01:34:07.360Z,-11411.88
2022-08-31T01:37:14.093Z,-11413.72
2022-08-31T01:40:26.428Z,-11403.84
2022-08-31T01:43:34.835Z,-11397.22
2022-08-31T01:46:41.570Z,-11402.00
2022-08-31T01:49:48.335Z,-11405.81
2022-08-31T01:52:54.779Z,-11410.34
2022-08-31T01:56:02.856Z,-11412.72
2022-08-31T01:59:13.001Z,-11399.63
2022-08-31T02:02:19.241Z,-11402.28
2022-08-31T02:05:25.593Z,-11401.44
2022-08-31T02:08:31.756Z,-11404.84
2022-08-31T02:11:40.087Z,-11413.84
2022-08-31T02:14:46.955Z,-11409.91
2022-08-31T02:17:53.466Z,-11412.16
2022-08-31T02:21:00.006Z,-11403.16
2022-08-31T02:24:07.077Z,-11416.09
2022-08-31T02:27:14.881Z,-11414.97
2022-08-31T02:30:21.351Z,-11414.84
2022-08-31T02:33:27.779Z,-11414.56
2022-08-31T02:36:35.980Z,-11418.66
2022-08-31T02:39:42.839Z,-11413.72
2022-08-31T02:42:52.988Z,-11419.78
2022-08-31T02:46:00.426Z,-11421.75
2022-08-31T02:49:06.746Z,-11416.09
2022-08-31T02:52:12.993Z,-11421.19
2022-08-31T02:55:19.257Z,-11416.38
2022-08-31T02:58:31.027Z,-11410.75
2022-08-31T03:01:37.893Z,-11417.22
2022-08-31T03:04:44.387Z,-11409.06
2022-08-31T03:07:51.416Z,-11407.09
2022-08-31T03:10:57.854Z,-11414.00
2022-08-31T03:14:05.563Z,-11418.94
2022-08-31T03:17:11.567Z,-11412.72
2022-08-31T03:20:20.175Z,-11416.25
2022-08-31T03:23:26.666Z,-11418.94
2022-08-31T03:26:32.676Z,-11415.25
2022-08-31T03:29:41.933Z,-11409.91
2022-08-31T03:32:48.488Z,-11410.06
2022-08-31T03:35:54.902Z,-11400.59
2022-08-31T03:39:01.189Z,-11413.28
2022-08-31T03:42:07.853Z,-11404.97
2022-08-31T03:45:15.832Z,-11405.97
2022-08-31T03:48:22.035Z,-11410.19
2022-08-31T03:51:28.700Z,-11410.75
2022-08-31T03:54:35.730Z,-11412.31
2022-08-31T03:57:42.141Z,-11410.91
2022-08-31T04:00:49.838Z,-11404.00
2022-08-31T04:03:56.107Z,-11396.94
2022-08-31T04:07:02.539Z,-11401.44
2022-08-31T04:10:09.556Z,-11404.84
2022-08-31T04:13:15.936Z,-11402.28
2022-08-31T04:16:24.905Z,-11403.16
2022-08-31T04:19:31.631Z,-11405.69
2022-08-31T04:22:38.027Z,-11408.06
2022-08-31T04:25:44.506Z,-11413.84
2022-08-31T04:28:50.811Z,-11410.19
2022-08-31T04:31:58.670Z,-11412.16
2022-08-31T04:35:05.417Z,-11410.75
2022-08-31T04:38:12.464Z,-11412.72
2022-08-31T04:41:21.500Z,-11411.59
2022-08-31T04:44:28.807Z,-11418.50
2022-08-31T04:47:36.542Z,-11417.09
2022-08-31T04:50:43.333Z,-11424.00
2022-08-31T04:53:50.223Z,-11428.09
2022-08-31T04:56:59.481Z,-11428.09
2022-08-31T05:00:07.307Z,-11420.19
2022-08-31T05:03:15.243Z,-11421.03
2022-08-31T05:06:23.811Z,-11431.06
2022-08-31T05:09:32.557Z,-11439.78
2022-08-31T05:12:38.846Z,-11437.81
2022-08-31T05:15:46.006Z,-11435.00
2022-08-31T05:18:54.843Z,-11443.88
2022-08-31T05:22:01.441Z,-11433.59
2022-08-31T05:25:09.481Z,-11448.38
2022-08-31T05:28:16.859Z,-11455.03
2022-08-31T05:31:23.522Z,-11458.53
2022-08-31T05:34:31.683Z,-11458.53
2022-08-31T05:37:38.383Z,-11443.31
2022-08-31T05:40:44.974Z,-11457.84
2022-08-31T05:43:51.420Z,-11457.28
2022-08-31T05:47:03.925Z,-11459.25
2022-08-31T05:50:12.900Z,-11460.66
2022-08-31T05:53:19.791Z,-11458.53
2022-08-31T05:56:26.583Z,-11451.63
2022-08-31T05:59:33.358Z,-11448.94
2022-08-31T06:02:40.230Z,-11450.38
2022-08-31T06:05:50.712Z,-11449.66
2022-08-31T06:08:58.091Z,-11443.47
2022-08-31T06:12:05.803Z,-11469.41
2022-08-31T06:15:13.339Z,-11478.16
2022-08-31T06:18:21.076Z,-11482.25
2022-08-31T06:21:32.217Z,-11484.06
2022-08-31T06:24:38.330Z,-11490.84
2022-08-31T06:27:47.771Z,-11489.16
2022-08-31T06:30:55.689Z,-11502.28
2022-08-31T06:34:03.334Z,-11507.06
2022-08-31T06:37:18.616Z,-11505.38
2022-08-31T06:59:01.354Z,-11508.34
2022-08-31T07:02:08.925Z,-11512.00
2022-08-31T07:05:20.014Z,-11526.13
2022-08-31T07:08:30.623Z,-11527.09
2022-08-31T07:11:42.278Z,-11528.66
2022-08-31T07:14:54.657Z,-11515.94
2022-08-31T07:18:02.066Z,-11514.81
2022-08-31T07:21:10.908Z,-11495.91
2022-08-31T07:24:19.356Z,-11492.81
2022-08-31T07:27:25.795Z,-11498.16
2022-08-31T07:30:39.255Z,-11523.00
2022-08-31T07:33:45.692Z,-11531.47
2022-08-31T07:37:09.251Z,-11539.94
2022-08-31T07:40:33.447Z,-11531.31
2022-08-31T07:43:39.807Z,-11543.03
2022-08-31T07:46:49.390Z,-11545.00
2022-08-31T07:49:58.591Z,-11562.78
2022-08-31T07:53:08.638Z,-11566.59
2022-08-31T07:56:17.795Z,-11569.28
2022-08-31T07:59:24.835Z,-11572.97
2022-08-31T08:02:38.442Z,-11554.63
2022-08-31T08:05:44.711Z,-11560.81
2022-08-31T08:09:21.566Z,-11578.75
2022-08-31T08:12:22.398Z,-11554.63
2022-08-31T08:15:29.107Z,-11567.59
2022-08-31T08:18:36.731Z,-11561.66
2022-08-31T08:21:43.695Z,-11570.69
2022-08-31T08:24:50.955Z,-11585.94
2022-08-31T08:27:57.392Z,-11589.06
2022-08-31T08:31:04.839Z,-11576.34
2022-08-31T08:34:13.506Z,-11583.97
2022-08-31T08:37:31.098Z,-11597.81
2022-08-31T08:40:47.670Z,-11581.16
2022-08-31T08:43:57.460Z,-11592.00
2022-08-31T08:47:07.354Z,-11617.56
2022-08-31T08:50:19.033Z,-11608.53
2022-08-31T08:53:30.193Z,-11572.41
2022-08-31T08:56:49.118Z,-11599.06
2022-08-31T08:59:59.287Z,-11595.53
2022-08-31T09:03:07.898Z,-11602.75
2022-08-31T09:06:27.302Z,-11595.97
2022-08-31T09:09:43.488Z,-11605.00
2022-08-31T09:12:59.332Z,-11612.91
2022-08-31T09:16:17.794Z,-11610.78
2022-08-31T09:19:24.541Z,-11619.13
2022-08-31T09:22:35.028Z,-11615.03
2022-08-31T09:25:52.627Z,-11606.13
2022-08-31T09:29:00.319Z,-11617.72
2022-08-31T09:32:10.093Z,-11602.88
2022-08-31T09:35:28.607Z,-11635.63
2022-08-31T09:38:39.635Z,-11628.88
2022-08-31T09:41:47.491Z,-11631.69
2022-08-31T09:44:59.167Z,-11638.59
2022-08-31T09:48:07.628Z,-11631.69
2022-08-31T09:51:24.500Z,-11630.28
2022-08-31T09:54:49.354Z,-11637.19
2022-08-31T09:57:59.291Z,-11642.13
2022-08-31T10:01:13.530Z,-11643.53
2022-08-31T10:04:26.973Z,-11644.25
2022-08-31T10:07:44.459Z,-11664.59
2022-08-31T10:10:53.107Z,-11661.91
2022-08-31T10:14:07.783Z,-11671.50
2022-08-31T10:17:23.964Z,-11667.00
2022-08-31T10:20:36.078Z,-11636.19
2022-08-31T10:23:54.655Z,-11685.63
2022-08-31T10:27:10.361Z,-11681.97
2022-08-31T10:30:41.846Z,-11701.72
2022-08-31T10:34:13.786Z,-11663.88
2022-08-31T10:37:25.338Z,-11640.00
2022-08-31T10:40:36.234Z,-11657.53
2022-08-31T10:43:50.355Z,-11655.53
2022-08-31T10:47:05.828Z,-11639.31
2022-08-31T10:50:17.568Z,-11649.06
2022-08-31T10:53:40.350Z,-11649.19
2022-08-31T10:56:59.366Z,-11649.19
2022-08-31T11:00:33.456Z,-11663.03
2022-08-31T11:03:54.730Z,-11642.28
2022-08-31T11:07:12.341Z,-11683.22
2022-08-31T11:10:26.607Z,-11703.44
2022-08-31T11:13:57.211Z,-11699.47
2022-08-31T11:17:35.376Z,-11701.72
2022-08-31T11:21:01.205Z,-11685.34
2022-08-31T11:24:28.430Z,-11699.34
2022-08-31T11:27:37.128Z,-11705.13
2022-08-31T11:30:50.150Z,-11668.81
2022-08-31T11:34:16.016Z,-11662.47
2022-08-31T11:37:58.010Z,-11672.34
2022-08-31T11:41:05.764Z,-11676.59
2022-08-31T11:44:51.353Z,-11650.31
2022-08-31T11:47:57.668Z,-11655.13
2022-08-31T11:51:08.136Z,-11657.94
2022-08-31T11:54:42.059Z,-11662.75
2022-08-31T11:58:23.344Z,-11657.38
2022-08-31T12:01:35.356Z,-11665.00
2022-08-31T12:05:02.807Z,-11682.53
2022-08-31T12:08:15.489Z,-11696.06
2022-08-31T12:11:36.645Z,-11700.88
2022-08-31T12:14:51.248Z,-11655.53
2022-08-31T12:18:24.642Z,-11665.00
2022-08-31T12:22:00.730Z,-11651.16
2022-08-31T12:25:20.442Z,-11646.78
2022-08-31T12:28:35.734Z,-11630.00
2022-08-31T12:31:43.487Z,-11631.25
2022-08-31T12:34:57.883Z,-11643.81
2022-08-31T12:38:06.687Z,-11629.44
2022-08-31T12:41:15.719Z,-11624.63
2022-08-31T12:44:24.022Z,-11623.34
2022-08-31T12:47:38.015Z,-11615.16
2022-08-31T12:50:50.125Z,-11606.00
2022-08-31T12:54:14.752Z,-11596.66
2022-08-31T12:57:37.213Z,-11585.38
2022-08-31T13:00:44.186Z,-11596.94
2022-08-31T13:03:54.523Z,-11595.81
2022-08-31T13:07:14.638Z,-11597.38
2022-08-31T13:10:29.859Z,-11592.56
2022-08-31T13:13:39.113Z,-11575.50
2022-08-31T13:16:47.388Z,-11578.59
2022-08-31T13:19:56.536Z,-11589.47
2022-08-31T13:23:03.845Z,-11589.91
2022-08-31T13:26:20.042Z,-11586.78
2022-08-31T13:29:27.923Z,-11599.22
2022-08-31T13:32:35.523Z,-11597.53
2022-08-31T13:35:45.027Z,-11592.44
2022-08-31T13:38:53.943Z,-11597.22
2022-08-31T13:42:08.171Z,-11590.31
2022-08-31T13:45:29.331Z,-11590.19
2022-08-31T13:48:38.509Z,-11584.09
2022-08-31T13:51:48.101Z,-11576.34
2022-08-31T13:55:00.643Z,-11583.13
2022-08-31T13:58:08.791Z,-11569.00
2022-08-31T14:01:26.899Z,-11577.19
2022-08-31T14:05:00.523Z,-11579.88
2022-08-31T14:08:09.576Z,-11570.69
2022-08-31T14:11:17.924Z,-11553.47
2022-08-31T14:14:39.945Z,-11548.41
2022-08-31T14:21:23.464Z,-11541.50
2022-08-31T14:24:32.509Z,-11543.88
2022-08-31T14:27:43.263Z,-11544.31
2022-08-31T14:30:49.404Z,-11540.50
2022-08-31T14:34:09.411Z,-11538.66
2022-08-31T14:37:20.044Z,-11531.31
2022-08-31T14:40:27.118Z,-11530.34
2022-08-31T14:43:33.539Z,-11534.00
2022-08-31T14:46:41.549Z,-11537.25
2022-08-31T14:49:49.592Z,-11534.84
2022-08-31T14:52:57.704Z,-11521.72
2022-08-31T14:56:05.048Z,-11525.97
2022-08-31T14:59:12.609Z,-11516.22
2022-08-31T15:02:21.703Z,-11503.81
2022-08-31T15:05:30.246Z,-11509.19
2022-08-31T15:08:37.990Z,-11516.94
2022-08-31T15:11:46.136Z,-11512.00
2022-08-31T15:15:00.081Z,-11514.53
2022-08-31T15:18:06.664Z,-11514.69
2022-08-31T15:21:14.649Z,-11503.25
2022-08-31T15:24:23.177Z,-11493.53
2022-08-31T15:27:31.863Z,-11500.16
2022-08-31T15:30:40.866Z,-11500.00
2022-08-31T15:33:49.474Z,-11488.44
2022-08-31T15:37:01.165Z,-11490.84
2022-08-31T15:40:10.271Z,-11491.97
2022-08-31T15:43:18.191Z,-11488.31
2022-08-31T15:46:44.558Z,-11484.78
2022-08-31T15:49:51.288Z,-11475.63
2022-08-31T15:53:05.162Z,-11473.22
2022-08-31T15:56:15.110Z,-11483.78
2022-08-31T15:59:22.982Z,-11480.69
2022-08-31T16:02:33.506Z,-11482.38
2022-08-31T16:05:40.088Z,-11478.72
2022-08-31T16:08:48.172Z,-11478.44
2022-08-31T16:11:54.837Z,-11473.34
2022-08-31T16:15:00.996Z,-11471.94
2022-08-31T16:18:08.127Z,-11472.50
2022-08-31T16:21:14.788Z,-11470.09
2022-08-31T16:24:25.175Z,-11474.63
2022-08-31T16:27:31.319Z,-11475.63
2022-08-31T16:30:37.626Z,-11473.34
2022-08-31T16:33:44.764Z,-11471.09
2022-08-31T16:36:52.407Z,-11473.34
2022-08-31T16:40:00.521Z,-11472.50
2022-08-31T16:43:06.907Z,-11474.75
2022-08-31T16:46:37.311Z,-11475.34
2022-08-31T16:49:41.407Z,-11471.94
2022-08-31T16:52:51.150Z,-11473.34
2022-08-31T16:56:00.176Z,-11471.66
2022-08-31T16:59:07.296Z,-11469.81
2022-08-31T17:02:15.727Z,-11469.97
2022-08-31T17:05:21.879Z,-11458.97
2022-08-31T17:08:30.087Z,-11454.75
2022-08-31T17:11:40.666Z,-11452.91
2022-08-31T17:14:52.603Z,-11455.72
2022-08-31T17:17:59.161Z,-11452.75
2022-08-31T17:21:05.671Z,-11458.53
2022-08-31T17:24:16.130Z,-11452.75
2022-08-31T17:27:23.679Z,-11448.81
2022-08-31T17:30:29.823Z,-11448.53
2022-08-31T17:33:36.256Z,-11441.34
2022-08-31T17:36:43.462Z,-11444.03
2022-08-31T17:39:50.762Z,-11441.75
2022-08-31T17:43:00.065Z,-11432.47
2022-08-31T17:46:09.191Z,-11434.56
2022-08-31T17:49:16.200Z,-11433.59
2022-08-31T17:52:23.775Z,-11432.59
2022-08-31T17:55:31.265Z,-11426.13
2022-08-31T17:58:38.862Z,-11432.47
2022-08-31T18:01:47.036Z,-11429.09
2022-08-31T18:04:53.817Z,-11425.97
2022-08-31T18:08:00.233Z,-11421.88
2022-08-31T18:11:07.722Z,-11421.03
2022-08-31T18:14:16.347Z,-11418.66
2022-08-31T18:17:23.145Z,-11423.72
2022-08-31T18:20:29.623Z,-11413.84
2022-08-31T18:23:38.053Z,-11416.53
2022-08-31T18:26:47.372Z,-11415.53
2022-08-31T18:29:56.468Z,-11422.59
2022-08-31T18:33:04.076Z,-11420.06
2022-08-31T18:36:12.011Z,-11409.19
2022-08-31T18:39:47.555Z,-11406.25
2022-08-31T18:43:06.279Z,-11415.12
2022-08-31T18:46:14.115Z,-11413.28
2022-08-31T18:49:22.384Z,-11409.63
2022-08-31T18:52:29.254Z,-11406.09
2022-08-31T18:55:35.627Z,-11403.72
2022-08-31T18:58:41.776Z,-11406.66
2022-08-31T19:01:49.429Z,-11399.19
2022-08-31T19:04:56.092Z,-11400.19
2022-08-31T19:08:02.679Z,-11399.19
2022-08-31T19:11:09.762Z,-11402.44
2022-08-31T19:14:16.840Z,-11402.44
2022-08-31T19:17:24.842Z,-11392.00
2022-08-31T19:20:31.375Z,-11399.47
2022-08-31T19:23:37.948Z,-11396.94
2022-08-31T19:26:48.360Z,-11401.88
2022-08-31T19:29:56.486Z,-11397.66
2022-08-31T19:33:07.633Z,-11394.69
2022-08-31T19:36:14.299Z,-11393.84
2022-08-31T19:39:22.990Z,-11387.34
2022-08-31T19:45:56.548Z,-11386.22
2022-08-31T19:49:18.301Z,-11390.75
2022-08-31T19:52:25.882Z,-11388.63
2022-08-31T19:55:32.402Z,-11390.19
2022-08-31T19:58:40.042Z,-11388.06
2022-08-31T20:01:48.355Z,-11392.56
2022-08-31T20:04:56.360Z,-11389.91
2022-08-31T20:08:02.951Z,-11389.34
2022-08-31T20:11:11.010Z,-11386.78
2022-08-31T20:14:19.358Z,-11387.91
2022-08-31T20:17:25.483Z,-11390.03
2022-08-31T20:20:36.254Z,-11392.28
2022-08-31T20:23:42.645Z,-11390.75
2022-08-31T20:26:51.945Z,-11382.28
2022-08-31T20:29:58.094Z,-11363.41
2022-08-31T20:33:04.296Z,-11374.25
2022-08-31T20:36:19.034Z,-11369.47
2022-08-31T20:39:27.431Z,-11382.44
2022-08-31T20:42:33.992Z,-11389.63
2022-08-31T20:45:41.041Z,-11387.06
2022-08-31T20:49:04.580Z,-11386.78
2022-08-31T20:52:14.847Z,-11387.63
2022-08-31T20:55:22.679Z,-11391.03
2022-08-31T20:58:33.055Z,-11389.75
2022-08-31T21:01:39.536Z,-11388.75
2022-08-31T21:04:46.486Z,-11391.59
2022-08-31T21:07:57.895Z,-11388.75
2022-08-31T21:11:12.635Z,-11393.97
2022-08-31T21:14:20.839Z,-11398.22
2022-08-31T21:17:27.377Z,-11399.91
2022-08-31T21:20:35.639Z,-11391.88
2022-08-31T21:23:43.634Z,-11390.19
2022-08-31T21:26:50.475Z,-11386.50
2022-08-31T21:29:57.206Z,-11388.47
2022-08-31T21:33:03.254Z,-11393.28
2022-08-31T21:36:12.229Z,-11379.19
2022-08-31T21:39:21.867Z,-11383.41
2022-08-31T21:42:28.220Z,-11385.09
2022-08-31T21:45:34.598Z,-11392.72
2022-08-31T21:48:43.067Z,-11394.81
2022-08-31T21:51:51.689Z,-11393.00
2022-08-31T21:54:59.376Z,-11392.44
2022-08-31T21:58:05.578Z,-11394.13
2022-08-31T22:01:13.497Z,-11383.56
2022-08-31T22:04:21.241Z,-11376.09
2022-08-31T22:07:27.358Z,-11376.78
2022-08-31T22:10:39.389Z,-11384.53
2022-08-31T22:13:48.089Z,-11386.50
2022-08-31T22:16:56.357Z,-11384.41
2022-08-31T22:20:03.069Z,-11384.25
2022-08-31T22:33:17.262Z,-11382.44
2022-08-31T22:36:31.433Z,-11376.09
2022-08-31T22:39:42.553Z,-11381.16
2022-08-31T22:42:50.296Z,-11376.22
2022-08-31T22:45:56.478Z,-11378.75
2022-08-31T22:49:04.454Z,-11377.63
2022-08-31T22:52:14.112Z,-11377.22
2022-08-31T22:55:23.240Z,-11375.25
2022-08-31T22:58:29.664Z,-11371.72
2022-08-31T23:01:38.693Z,-11376.94
2022-08-31T23:04:46.633Z,-11373.69
2022-08-31T23:07:53.386Z,-11373.97
2022-08-31T23:10:59.615Z,-11368.34
2022-08-31T23:14:08.685Z,-11368.91
2022-08-31T23:17:17.327Z,-11367.78
2022-08-31T23:20:27.322Z,-11361.72
2022-08-31T23:23:33.582Z,-11369.59
2022-08-31T23:26:40.850Z,-11365.09
2022-08-31T23:29:49.927Z,-11353.41
2022-08-31T23:32:58.772Z,-11362.56
2022-08-31T23:36:08.270Z,-11357.78
2022-08-31T23:39:15.573Z,-11349.88
2022-08-31T23:42:23.010Z,-11353.53
2022-08-31T23:45:29.308Z,-11358.19
2022-08-31T23:48:35.554Z,-11370.31
2022-08-31T23:51:43.232Z,-11362.56
2022-08-31T23:54:52.297Z,-11365.94
2022-08-31T23:57:59.461Z,-11364.81
